DW9615 Home Hill AU current weather conditions

sailwx.info

Wind from 055 at 4 knots gusting 10

Air temperature 23.9° C
Dewpoint 17.6° C

Last reported at 2014-Oct-02 07:39 UTC.
Time now 2014-Oct-02 08:29 UTC

Location: S 19°40' E 147°25'.
View on Google Maps.

See reports from other nearby stations

  
Tides and Currents Weather Stations Pressure Air Temp Water Temp Dewpoint Dewpoint Depression Visibility Wind Speed Wind Dir Waves Ship Positions
date/time (UTC)wind fromknots sea level pressurealtimeterstation pressurevisibilityair tempwater tempwave heightnotes
2014-Oct-02 07:39 055 4 gusting 10 23.9
2014-Oct-02 07:24 075 3 gusting 8 23.9
2014-Oct-02 07:09 101 5 gusting 9 24.4
2014-Oct-02 06:55 057 5 gusting 13 25.0
2014-Oct-02 06:39 086 6 gusting 10 25.0
2014-Oct-02 06:24 073 5 gusting 13 25.6
2014-Oct-02 06:09 098 4 gusting 10 25.6
2014-Oct-02 05:54 055 6 gusting 12 26.1
2014-Oct-02 04:39 036 3 gusting 12 27.2
2014-Oct-02 04:24 094 6 gusting 12 27.2
2014-Oct-02 04:09 118 4 gusting 10 27.8
2014-Oct-02 03:54 095 1 gusting 10 27.8
2014-Oct-02 03:39 090 5 gusting 9 27.8
2014-Oct-02 03:24 064 4 gusting 12 27.2
2014-Oct-02 03:09 116 3 gusting 11 27.2
2014-Oct-02 02:54 086 3 gusting 10 27.2
2014-Oct-02 02:39 036 6 gusting 10 27.2
2014-Oct-02 02:24 045 2 gusting 8 27.2
2014-Oct-02 02:09 074 2 gusting 8 27.8
2014-Oct-02 01:54 108 2 gusting 7 27.8
2014-Oct-02 01:39 104 3 gusting 9 27.2
2014-Oct-02 01:24 102 3 gusting 8 27.2
2014-Oct-02 01:09 100 0 gusting 9 27.2
2014-Oct-02 00:54 114 1 gusting 6 27.8
2014-Oct-02 00:39 064 2 gusting 6 27.2
2014-Oct-02 00:24 202 1 gusting 6 26.7
2014-Oct-02 00:09 143 1 gusting 5 26.1
2014-Oct-01 23:54 079 2 gusting 6 25.6
2014-Oct-01 23:39 056 0 gusting 5 25.6
2014-Oct-01 23:24 121 1 gusting 6 25.0
2014-Oct-01 23:08 100 0 gusting 3 25.0
2014-Oct-01 22:53 083 0 gusting 5 24.4
2014-Oct-01 22:38 088 1 gusting 4 23.9
2014-Oct-01 22:23 165 23.3
2014-Oct-01 22:08 093 22.2
2014-Oct-01 21:53 138 0 gusting 2 20.6
2014-Oct-01 21:38 151 0 gusting 2 19.4
2014-Oct-01 21:23 163 0 gusting 2 18.3
2014-Oct-01 21:08 315 17.2
2014-Oct-01 20:53 342 16.7
2014-Oct-01 20:38 342 15.6
2014-Oct-01 20:23 342 15.0
2014-Oct-01 20:08 342 14.4
2014-Oct-01 19:53 342 14.4
2014-Oct-01 19:38 342 14.4
2014-Oct-01 19:23 342 14.4
2014-Oct-01 19:08 342 14.4
2014-Oct-01 18:53 342 14.4
2014-Oct-01 18:38 342 15.0
2014-Oct-01 18:23 342 15.0
2014-Oct-01 18:08 342 15.0
2014-Oct-01 17:53 342 15.6
2014-Oct-01 17:38 342 15.0
2014-Oct-01 17:23 342 15.0
2014-Oct-01 17:08 342 15.0
2014-Oct-01 16:52 342 15.6
2014-Oct-01 16:37 342 15.6
2014-Oct-01 16:22 342 15.0
2014-Oct-01 16:07 342 15.6
2014-Oct-01 15:52 342 15.6
2014-Oct-01 15:37 342 15.6
2014-Oct-01 15:22 342 15.6
2014-Oct-01 15:07 342 16.1
2014-Oct-01 14:52 342 16.1
2014-Oct-01 14:37 342 16.1
2014-Oct-01 14:22 342 16.1
2014-Oct-01 14:07 342 16.7
2014-Oct-01 13:52 342 16.7
2014-Oct-01 13:37 342 17.2
2014-Oct-01 13:22 343 17.2
2014-Oct-01 13:07 342 17.2
2014-Oct-01 12:52 343 17.2
2014-Oct-01 12:37 344 16.7
2014-Oct-01 12:22 342 17.2
2014-Oct-01 12:07 343 17.8
2014-Oct-01 11:52 342 17.8
2014-Oct-01 11:37 343 18.3
2014-Oct-01 11:22 343 18.9
2014-Oct-01 11:07 343 18.9
2014-Oct-01 10:52 343 19.4
2014-Oct-01 10:37 344 20.0
2014-Oct-01 10:22 344 20.0
2014-Oct-01 10:07 343 20.0
2014-Oct-01 09:52 343 20.0
2014-Oct-01 09:37 344 20.6
2014-Oct-01 09:22 343 20.6
2014-Oct-01 09:07 343 21.1
2014-Oct-01 08:52 326 21.7
2014-Oct-01 08:37 063 22.2
2014-Oct-01 08:22 055 1 gusting 4 22.8
2014-Oct-01 08:07 081 2 gusting 6 23.3
2014-Oct-01 07:52 069 3 gusting 8 23.9
2014-Oct-01 07:37 104 1 gusting 7 23.9
2014-Oct-01 07:22 076 5 gusting 11 24.4
2014-Oct-01 07:07 056 4 gusting 8 25.0
2014-Oct-01 06:52 076 3 gusting 7 25.6
2014-Oct-01 06:37 111 1 gusting 6 26.1
2014-Oct-01 06:22 045 1 gusting 9 26.1
2014-Oct-01 06:07 066 5 gusting 9 26.1
2014-Oct-01 05:52 098 5 gusting 8 26.7
2014-Oct-01 05:37 046 0 gusting 9 26.7
2014-Oct-01 05:22 059 3 gusting 11 26.7
2014-Oct-01 05:07 076 6 gusting 11 27.2
2014-Oct-01 04:52 131 2 gusting 9 27.2
2014-Oct-01 04:37 332 1 gusting 8 27.2
2014-Oct-01 04:22 094 4 gusting 10 27.2
2014-Oct-01 04:07 080 2 gusting 10 27.2
2014-Oct-01 03:52 072 5 gusting 8 27.2
2014-Oct-01 03:36 052 2 gusting 9 27.2
2014-Oct-01 03:21 109 3 gusting 9 26.7
2014-Oct-01 03:06 017 2 gusting 10 27.2
2014-Oct-01 02:51 007 0 gusting 11 27.2
2014-Oct-01 02:36 064 3 gusting 7 26.7
2014-Oct-01 02:21 069 1 gusting 8 26.7
2014-Oct-01 01:51 344 3 gusting 7 26.7
2014-Oct-01 01:36 103 5 gusting 8 26.7
2014-Oct-01 01:21 045 1 gusting 9 26.7
2014-Oct-01 01:06 045 4 gusting 11 26.1
2014-Oct-01 00:51 101 4 gusting 9 26.7
2014-Oct-01 00:36 076 0 gusting 7 26.7
2014-Oct-01 00:21 156 2 gusting 6 26.1
2014-Oct-01 00:06 087 1 gusting 7 26.7
2014-Sep-30 23:51 124 1 gusting 5 26.1
2014-Sep-30 23:36 105 2 gusting 4 26.1
2014-Sep-30 23:21 209 25.0
2014-Sep-30 23:06 155 2 gusting 6 25.0
2014-Sep-30 22:51 161 1 gusting 6 24.4
2014-Sep-30 22:36 108 2 gusting 5 24.4
2014-Sep-30 22:21 143 0 gusting 5 23.3
2014-Sep-30 22:06 177 0 gusting 3 22.2
2014-Sep-30 21:51 149 0 gusting 4 21.1
2014-Sep-30 21:35 184 1 gusting 3 20.6
2014-Sep-30 21:20 169 1 gusting 3 18.9
2014-Sep-30 21:05 177 17.2
2014-Sep-30 20:50 171 0 gusting 3 16.7
2014-Sep-30 20:35 176 16.1
2014-Sep-30 20:20 225 15.0
2014-Sep-30 20:05 225 14.4
2014-Sep-30 19:50 225 14.4
2014-Sep-30 19:35 225 14.4
2014-Sep-30 19:20 225 13.9
2014-Sep-30 19:05 225 13.9
2014-Sep-30 18:50 225 14.4
2014-Sep-30 18:35 225 14.4
2014-Sep-30 18:20 225 14.4
2014-Sep-30 18:05 224 15.0
2014-Sep-30 17:50 224 15.0
2014-Sep-30 17:35 224 15.0
2014-Sep-30 17:20 223 15.0
2014-Sep-30 17:05 190 15.0
2014-Sep-30 16:50 190 15.0
2014-Sep-30 16:35 190 15.6
2014-Sep-30 16:20 190 15.6
2014-Sep-30 16:05 179 15.6
2014-Sep-30 15:50 178 15.6
2014-Sep-30 15:35 178 16.1
2014-Sep-30 15:20 190 16.1
2014-Sep-30 15:05 189 16.7
2014-Sep-30 14:50 137 17.2
2014-Sep-30 14:35 138 17.8
2014-Sep-30 14:19 138 18.3
2014-Sep-30 14:04 100 19.4
2014-Sep-30 13:49 083 20.0
2014-Sep-30 13:34 073 19.4
2014-Sep-30 13:19 095 19.4
2014-Sep-30 13:04 093 19.4
2014-Sep-30 12:49 086 20.0
2014-Sep-30 12:34 062 0 gusting 3 20.0
2014-Sep-30 12:19 080 20.0
2014-Sep-30 12:04 108 0 gusting 2 20.6
2014-Sep-30 11:49 069 0 gusting 2 20.6
2014-Sep-30 11:34 063 0 gusting 2 20.6
2014-Sep-30 11:19 053 0 gusting 2 20.0
2014-Sep-30 11:04 072 19.4
2014-Sep-30 10:49 069 19.4
2014-Sep-30 10:34 070 19.4
2014-Sep-30 10:19 070 20.0
2014-Sep-30 10:04 073 19.4
2014-Sep-30 09:49 073 20.0
2014-Sep-30 09:34 073 21.1
2014-Sep-30 09:19 074 21.7
2014-Sep-30 09:04 070 0 gusting 3 21.7
2014-Sep-30 08:49 059 2 gusting 5 22.2
2014-Sep-30 08:34 072 1 gusting 5 22.2
2014-Sep-30 08:19 056 3 gusting 6 22.8
2014-Sep-30 08:04 098 5 gusting 8 22.8